sensor_id;sensor_type;location;lat;lon;timestamp;temperature;humidity
5304;DHT22;2674;49.722;10.892;2022-12-18T00:02:16;-11.20;99.90
5304;DHT22;2674;49.722;10.892;2022-12-18T00:04:42;-11.20;99.90
5304;DHT22;2674;49.722;10.892;2022-12-18T00:07:08;-11.20;99.90
5304;DHT22;2674;49.722;10.892;2022-12-18T00:09:34;-11.30;99.90
5304;DHT22;2674;49.722;10.892;2022-12-18T00:12:00;-11.20;99.90
5304;DHT22;2674;49.722;10.892;2022-12-18T00:14:26;-11.30;99.90
5304;DHT22;2674;49.722;10.892;2022-12-18T00:16:51;-11.30;99.90
5304;DHT22;2674;49.722;10.892;2022-12-18T00:19:17;-11.30;99.90
5304;DHT22;2674;49.722;10.892;2022-12-18T00:21:43;-11.20;99.90
5304;DHT22;2674;49.722;10.892;2022-12-18T00:24:10;-11.20;99.90
5304;DHT22;2674;49.722;10.892;2022-12-18T00:26:37;-11.20;99.90
5304;DHT22;2674;49.722;10.892;2022-12-18T00:29:06;-11.20;99.90
5304;DHT22;2674;49.722;10.892;2022-12-18T00:31:33;-11.20;99.90
5304;DHT22;2674;49.722;10.892;2022-12-18T00:33:59;-11.20;99.90
5304;DHT22;2674;49.722;10.892;2022-12-18T00:36:28;-11.20;99.90
5304;DHT22;2674;49.722;10.892;2022-12-18T00:38:55;-11.10;99.90
5304;DHT22;2674;49.722;10.892;2022-12-18T00:41:22;-11.10;99.90
5304;DHT22;2674;49.722;10.892;2022-12-18T00:44:09;-11.10;99.90
5304;DHT22;2674;49.722;10.892;2022-12-18T00:46:35;-11.10;99.90
5304;DHT22;2674;49.722;10.892;2022-12-18T00:49:01;-11.00;99.90
5304;DHT22;2674;49.722;10.892;2022-12-18T00:51:27;-11.10;99.90
5304;DHT22;2674;49.722;10.892;2022-12-18T00:53:53;-11.10;99.90
5304;DHT22;2674;49.722;10.892;2022-12-18T00:56:22;-11.10;99.90
5304;DHT22;2674;49.722;10.892;2022-12-18T00:58:48;-11.10;99.90
5304;DHT22;2674;49.722;10.892;2022-12-18T01:01:13;-11.10;99.90
5304;DHT22;2674;49.722;10.892;2022-12-18T01:03:39;-11.20;99.90
5304;DHT22;2674;49.722;10.892;2022-12-18T01:06:10;-11.20;99.90
5304;DHT22;2674;49.722;10.892;2022-12-18T01:08:37;-11.20;99.90
5304;DHT22;2674;49.722;10.892;2022-12-18T01:11:15;-11.30;99.90
5304;DHT22;2674;49.722;10.892;2022-12-18T01:13:42;-11.40;99.90
5304;DHT22;2674;49.722;10.892;2022-12-18T01:16:10;-11.40;99.90
5304;DHT22;2674;49.722;10.892;2022-12-18T01:18:37;-11.50;99.90
5304;DHT22;2674;49.722;10.892;2022-12-18T01:21:09;-11.50;99.90
5304;DHT22;2674;49.722;10.892;2022-12-18T01:23:35;-11.60;99.90
5304;DHT22;2674;49.722;10.892;2022-12-18T01:26:08;-11.50;99.90
5304;DHT22;2674;49.722;10.892;2022-12-18T01:28:35;-11.60;99.90
5304;DHT22;2674;49.722;10.892;2022-12-18T01:31:15;-11.60;99.90
5304;DHT22;2674;49.722;10.892;2022-12-18T01:33:41;-11.60;99.90
5304;DHT22;2674;49.722;10.892;2022-12-18T01:36:07;-11.60;99.90
5304;DHT22;2674;49.722;10.892;2022-12-18T01:38:33;-11.60;99.90
5304;DHT22;2674;49.722;10.892;2022-12-18T01:41:00;-11.60;99.90
5304;DHT22;2674;49.722;10.892;2022-12-18T01:43:51;-11.70;99.90
5304;DHT22;2674;49.722;10.892;2022-12-18T01:46:18;-11.70;99.90
5304;DHT22;2674;49.722;10.892;2022-12-18T01:48:47;-11.70;99.90
5304;DHT22;2674;49.722;10.892;2022-12-18T01:51:14;-11.60;99.90
5304;DHT22;2674;49.722;10.892;2022-12-18T01:53:44;-11.80;99.90
5304;DHT22;2674;49.722;10.892;2022-12-18T01:56:14;-11.80;99.90
5304;DHT22;2674;49.722;10.892;2022-12-18T01:59:02;-11.90;99.90
5304;DHT22;2674;49.722;10.892;2022-12-18T02:01:29;-11.90;99.90
5304;DHT22;2674;49.722;10.892;2022-12-18T02:03:55;-11.90;99.90
5304;DHT22;2674;49.722;10.892;2022-12-18T02:06:34;-11.90;99.90
5304;DHT22;2674;49.722;10.892;2022-12-18T02:09:15;-11.90;99.90
5304;DHT22;2674;49.722;10.892;2022-12-18T02:12:12;-11.90;99.90
5304;DHT22;2674;49.722;10.892;2022-12-18T02:14:46;-11.90;99.90
5304;DHT22;2674;49.722;10.892;2022-12-18T02:17:19;-12.00;99.90
5304;DHT22;2674;49.722;10.892;2022-12-18T02:22:53;-11.90;99.90
5304;DHT22;2674;49.722;10.892;2022-12-18T02:28:09;-11.90;99.90
5304;DHT22;2674;49.722;10.892;2022-12-18T02:30:38;-11.90;99.90
5304;DHT22;2674;49.722;10.892;2022-12-18T02:33:07;-11.90;99.90
5304;DHT22;2674;49.722;10.892;2022-12-18T02:35:34;-11.90;99.90
5304;DHT22;2674;49.722;10.892;2022-12-18T02:38:03;-11.80;99.90
5304;DHT22;2674;49.722;10.892;2022-12-18T02:40:30;-11.80;99.90
5304;DHT22;2674;49.722;10.892;2022-12-18T02:43:12;-11.70;99.90
5304;DHT22;2674;49.722;10.892;2022-12-18T02:46:01;-11.70;99.90
5304;DHT22;2674;49.722;10.892;2022-12-18T02:48:38;-11.70;99.90
5304;DHT22;2674;49.722;10.892;2022-12-18T02:51:17;-11.70;99.90
5304;DHT22;2674;49.722;10.892;2022-12-18T02:53:57;-11.70;99.90
5304;DHT22;2674;49.722;10.892;2022-12-18T02:56:35;-11.70;99.90
5304;DHT22;2674;49.722;10.892;2022-12-18T02:59:12;-11.70;99.90
5304;DHT22;2674;49.722;10.892;2022-12-18T03:02:07;-11.70;99.90
5304;DHT22;2674;49.722;10.892;2022-12-18T03:05:01;-11.70;99.90
5304;DHT22;2674;49.722;10.892;2022-12-18T03:07:40;-11.70;99.90
5304;DHT22;2674;49.722;10.892;2022-12-18T03:10:09;-11.80;99.90
5304;DHT22;2674;49.722;10.892;2022-12-18T03:12:42;-11.90;99.90
5304;DHT22;2674;49.722;10.892;2022-12-18T03:17:39;-12.00;99.90
5304;DHT22;2674;49.722;10.892;2022-12-18T03:20:19;-12.10;99.90
5304;DHT22;2674;49.722;10.892;2022-12-18T03:22:51;-12.10;99.90
5304;DHT22;2674;49.722;10.892;2022-12-18T03:25:18;-12.00;99.90
5304;DHT22;2674;49.722;10.892;2022-12-18T03:27:51;-12.00;99.90
5304;DHT22;2674;49.722;10.892;2022-12-18T03:30:18;-12.00;99.90
5304;DHT22;2674;49.722;10.892;2022-12-18T03:35:18;-12.00;99.90
5304;DHT22;2674;49.722;10.892;2022-12-18T03:37:45;-12.00;99.90
5304;DHT22;2674;49.722;10.892;2022-12-18T03:40:11;-12.10;99.90
5304;DHT22;2674;49.722;10.892;2022-12-18T03:42:53;-12.10;99.90
5304;DHT22;2674;49.722;10.892;2022-12-18T03:45:32;-12.00;99.90
5304;DHT22;2674;49.722;10.892;2022-12-18T03:48:33;-12.00;99.90
5304;DHT22;2674;49.722;10.892;2022-12-18T03:51:08;-11.90;99.90
5304;DHT22;2674;49.722;10.892;2022-12-18T03:54:06;-11.80;99.90
5304;DHT22;2674;49.722;10.892;2022-12-18T03:56:33;-11.70;99.90
5304;DHT22;2674;49.722;10.892;2022-12-18T03:59:02;-11.60;99.90
5304;DHT22;2674;49.722;10.892;2022-12-18T04:01:33;-11.50;99.90
5304;DHT22;2674;49.722;10.892;2022-12-18T04:04:00;-11.50;99.90
5304;DHT22;2674;49.722;10.892;2022-12-18T04:06:28;-11.40;99.90
5304;DHT22;2674;49.722;10.892;2022-12-18T04:08:55;-11.20;99.90
5304;DHT22;2674;49.722;10.892;2022-12-18T04:11:22;-11.20;99.90
5304;DHT22;2674;49.722;10.892;2022-12-18T04:13:48;-11.10;99.90
5304;DHT22;2674;49.722;10.892;2022-12-18T04:16:13;-11.00;99.90
5304;DHT22;2674;49.722;10.892;2022-12-18T04:18:39;-10.90;99.90
5304;DHT22;2674;49.722;10.892;2022-12-18T04:21:05;-10.90;99.90
5304;DHT22;2674;49.722;10.892;2022-12-18T04:23:31;-10.80;99.90
5304;DHT22;2674;49.722;10.892;2022-12-18T04:25:56;-10.80;99.90
5304;DHT22;2674;49.722;10.892;2022-12-18T04:28:22;-10.70;99.90
5304;DHT22;2674;49.722;10.892;2022-12-18T04:30:48;-10.70;99.90
5304;DHT22;2674;49.722;10.892;2022-12-18T04:33:17;-10.70;99.90
5304;DHT22;2674;49.722;10.892;2022-12-18T04:35:43;-10.70;99.90
5304;DHT22;2674;49.722;10.892;2022-12-18T04:38:09;-10.70;99.90
5304;DHT22;2674;49.722;10.892;2022-12-18T04:40:38;-10.70;99.90
5304;DHT22;2674;49.722;10.892;2022-12-18T04:43:04;-10.70;99.90
5304;DHT22;2674;49.722;10.892;2022-12-18T04:45:31;-10.60;99.90
5304;DHT22;2674;49.722;10.892;2022-12-18T04:47:58;-10.50;99.90
5304;DHT22;2674;49.722;10.892;2022-12-18T04:50:24;-10.40;99.90
5304;DHT22;2674;49.722;10.892;2022-12-18T04:52:49;-10.40;99.90
5304;DHT22;2674;49.722;10.892;2022-12-18T04:55:15;-10.20;99.90
5304;DHT22;2674;49.722;10.892;2022-12-18T04:57:41;-10.10;99.90
5304;DHT22;2674;49.722;10.892;2022-12-18T05:00:07;-10.10;99.90
5304;DHT22;2674;49.722;10.892;2022-12-18T05:02:33;-10.00;99.90
5304;DHT22;2674;49.722;10.892;2022-12-18T05:04:59;-9.90;99.90
5304;DHT22;2674;49.722;10.892;2022-12-18T05:07:25;-9.80;99.90
5304;DHT22;2674;49.722;10.892;2022-12-18T05:09:50;-9.70;99.90
5304;DHT22;2674;49.722;10.892;2022-12-18T05:12:16;-9.70;99.90
5304;DHT22;2674;49.722;10.892;2022-12-18T05:14:42;-9.80;99.90
5304;DHT22;2674;49.722;10.892;2022-12-18T05:17:08;-9.90;99.90
5304;DHT22;2674;49.722;10.892;2022-12-18T05:19:34;-10.00;99.90
5304;DHT22;2674;49.722;10.892;2022-12-18T05:22:00;-10.10;99.90
5304;DHT22;2674;49.722;10.892;2022-12-18T05:24:26;-10.10;99.90
5304;DHT22;2674;49.722;10.892;2022-12-18T05:26:52;-10.10;99.90
5304;DHT22;2674;49.722;10.892;2022-12-18T05:29:18;-10.10;99.90
5304;DHT22;2674;49.722;10.892;2022-12-18T05:31:44;-10.20;99.90
5304;DHT22;2674;49.722;10.892;2022-12-18T05:34:10;-10.10;99.90
5304;DHT22;2674;49.722;10.892;2022-12-18T05:36:35;-10.20;99.90
5304;DHT22;2674;49.722;10.892;2022-12-18T05:39:01;-10.10;99.90
5304;DHT22;2674;49.722;10.892;2022-12-18T05:41:27;-9.90;99.90
5304;DHT22;2674;49.722;10.892;2022-12-18T05:43:54;-9.80;99.90
5304;DHT22;2674;49.722;10.892;2022-12-18T05:46:19;-9.70;99.90
5304;DHT22;2674;49.722;10.892;2022-12-18T05:48:45;-9.60;99.90
5304;DHT22;2674;49.722;10.892;2022-12-18T05:51:14;-9.60;99.90
5304;DHT22;2674;49.722;10.892;2022-12-18T05:53:42;-9.50;99.90
5304;DHT22;2674;49.722;10.892;2022-12-18T05:56:11;-9.50;99.90
5304;DHT22;2674;49.722;10.892;2022-12-18T05:58:38;-9.40;99.90
5304;DHT22;2674;49.722;10.892;2022-12-18T06:01:15;-9.30;99.90
5304;DHT22;2674;49.722;10.892;2022-12-18T06:03:41;-9.30;99.90
5304;DHT22;2674;49.722;10.892;2022-12-18T06:06:15;-9.30;99.90
5304;DHT22;2674;49.722;10.892;2022-12-18T06:08:42;-9.20;99.90
5304;DHT22;2674;49.722;10.892;2022-12-18T06:11:08;-9.20;99.90
5304;DHT22;2674;49.722;10.892;2022-12-18T06:13:33;-9.10;99.90
5304;DHT22;2674;49.722;10.892;2022-12-18T06:16:03;-9.10;99.90
5304;DHT22;2674;49.722;10.892;2022-12-18T06:18:28;-9.00;99.90
5304;DHT22;2674;49.722;10.892;2022-12-18T06:20:56;-8.90;99.90
5304;DHT22;2674;49.722;10.892;2022-12-18T06:23:22;-8.90;99.90
5304;DHT22;2674;49.722;10.892;2022-12-18T06:25:48;-8.80;99.90
5304;DHT22;2674;49.722;10.892;2022-12-18T06:28:14;-8.80;99.90
5304;DHT22;2674;49.722;10.892;2022-12-18T06:30:40;-8.80;99.90
5304;DHT22;2674;49.722;10.892;2022-12-18T06:33:08;-8.70;99.90
5304;DHT22;2674;49.722;10.892;2022-12-18T06:35:34;-8.60;99.90
5304;DHT22;2674;49.722;10.892;2022-12-18T06:38:01;-8.60;99.90
5304;DHT22;2674;49.722;10.892;2022-12-18T06:40:28;-8.50;99.90
5304;DHT22;2674;49.722;10.892;2022-12-18T06:42:54;-8.50;99.90
5304;DHT22;2674;49.722;10.892;2022-12-18T06:45:19;-8.40;99.90
5304;DHT22;2674;49.722;10.892;2022-12-18T06:47:45;-8.40;99.90
5304;DHT22;2674;49.722;10.892;2022-12-18T06:50:12;-8.30;99.90
5304;DHT22;2674;49.722;10.892;2022-12-18T06:52:38;-8.20;99.90
5304;DHT22;2674;49.722;10.892;2022-12-18T06:55:09;-8.20;99.90
5304;DHT22;2674;49.722;10.892;2022-12-18T06:57:35;-8.20;99.90
5304;DHT22;2674;49.722;10.892;2022-12-18T07:00:00;-8.10;99.90
5304;DHT22;2674;49.722;10.892;2022-12-18T07:02:26;-8.10;99.90
5304;DHT22;2674;49.722;10.892;2022-12-18T07:04:52;-8.00;99.90
5304;DHT22;2674;49.722;10.892;2022-12-18T07:07:18;-8.00;99.90
5304;DHT22;2674;49.722;10.892;2022-12-18T07:09:44;-7.90;99.90
5304;DHT22;2674;49.722;10.892;2022-12-18T07:12:10;-7.90;99.90
5304;DHT22;2674;49.722;10.892;2022-12-18T07:14:35;-7.90;99.90
5304;DHT22;2674;49.722;10.892;2022-12-18T07:17:01;-7.90;99.90
5304;DHT22;2674;49.722;10.892;2022-12-18T07:19:27;-7.90;99.90
5304;DHT22;2674;49.722;10.892;2022-12-18T07:21:53;-7.90;99.90
5304;DHT22;2674;49.722;10.892;2022-12-18T07:24:18;-8.00;99.90
5304;DHT22;2674;49.722;10.892;2022-12-18T07:26:48;-8.00;99.90
5304;DHT22;2674;49.722;10.892;2022-12-18T07:29:14;-8.00;99.90
5304;DHT22;2674;49.722;10.892;2022-12-18T07:31:39;-8.10;99.90
5304;DHT22;2674;49.722;10.892;2022-12-18T07:34:09;-8.10;99.90
5304;DHT22;2674;49.722;10.892;2022-12-18T07:36:35;-8.00;99.90
5304;DHT22;2674;49.722;10.892;2022-12-18T07:39:00;-8.00;99.90
5304;DHT22;2674;49.722;10.892;2022-12-18T07:41:26;-8.00;99.90
5304;DHT22;2674;49.722;10.892;2022-12-18T07:43:52;-8.00;99.90
5304;DHT22;2674;49.722;10.892;2022-12-18T07:46:18;-7.90;99.90
5304;DHT22;2674;49.722;10.892;2022-12-18T07:48:44;-7.90;99.90
5304;DHT22;2674;49.722;10.892;2022-12-18T07:51:13;-7.90;99.90
5304;DHT22;2674;49.722;10.892;2022-12-18T07:53:40;-7.90;99.90
5304;DHT22;2674;49.722;10.892;2022-12-18T07:56:10;-7.80;99.90
5304;DHT22;2674;49.722;10.892;2022-12-18T07:58:39;-7.70;99.90
5304;DHT22;2674;49.722;10.892;2022-12-18T08:01:10;-7.60;99.90
5304;DHT22;2674;49.722;10.892;2022-12-18T08:03:37;-7.60;99.90
5304;DHT22;2674;49.722;10.892;2022-12-18T08:06:05;-7.60;99.90
5304;DHT22;2674;49.722;10.892;2022-12-18T08:08:32;-7.50;99.90
5304;DHT22;2674;49.722;10.892;2022-12-18T08:10:59;-7.50;99.90
5304;DHT22;2674;49.722;10.892;2022-12-18T08:13:25;-7.40;99.90
5304;DHT22;2674;49.722;10.892;2022-12-18T08:15:59;-7.40;99.90
5304;DHT22;2674;49.722;10.892;2022-12-18T08:18:25;-7.40;99.90
5304;DHT22;2674;49.722;10.892;2022-12-18T08:20:51;-7.30;99.90
5304;DHT22;2674;49.722;10.892;2022-12-18T08:23:17;-7.20;99.90
5304;DHT22;2674;49.722;10.892;2022-12-18T08:25:43;-7.20;99.90
5304;DHT22;2674;49.722;10.892;2022-12-18T08:28:09;-7.10;99.90
5304;DHT22;2674;49.722;10.892;2022-12-18T08:30:36;-7.10;99.90
5304;DHT22;2674;49.722;10.892;2022-12-18T08:33:02;-7.00;99.90
5304;DHT22;2674;49.722;10.892;2022-12-18T08:35:28;-7.00;99.90
5304;DHT22;2674;49.722;10.892;2022-12-18T08:37:53;-6.90;99.90
5304;DHT22;2674;49.722;10.892;2022-12-18T08:40:19;-6.90;99.90
5304;DHT22;2674;49.722;10.892;2022-12-18T08:42:45;-6.90;99.90
5304;DHT22;2674;49.722;10.892;2022-12-18T08:45:29;-6.90;99.90
5304;DHT22;2674;49.722;10.892;2022-12-18T08:47:55;-6.80;99.90
5304;DHT22;2674;49.722;10.892;2022-12-18T08:50:21;-6.90;99.90
5304;DHT22;2674;49.722;10.892;2022-12-18T08:52:47;-6.80;99.90
5304;DHT22;2674;49.722;10.892;2022-12-18T08:55:13;-6.80;99.90
5304;DHT22;2674;49.722;10.892;2022-12-18T08:57:39;-6.80;99.90
5304;DHT22;2674;49.722;10.892;2022-12-18T09:00:05;-6.80;99.90
5304;DHT22;2674;49.722;10.892;2022-12-18T09:02:31;-6.80;99.90
5304;DHT22;2674;49.722;10.892;2022-12-18T09:04:57;-6.70;99.90
5304;DHT22;2674;49.722;10.892;2022-12-18T09:07:22;-6.70;99.90
5304;DHT22;2674;49.722;10.892;2022-12-18T09:09:48;-6.70;99.90
5304;DHT22;2674;49.722;10.892;2022-12-18T09:12:14;-6.60;99.90
5304;DHT22;2674;49.722;10.892;2022-12-18T09:14:40;-6.60;99.90
5304;DHT22;2674;49.722;10.892;2022-12-18T09:17:06;-6.40;99.90
5304;DHT22;2674;49.722;10.892;2022-12-18T09:19:32;-6.30;99.90
5304;DHT22;2674;49.722;10.892;2022-12-18T09:21:57;-6.20;99.90
5304;DHT22;2674;49.722;10.892;2022-12-18T09:24:23;-6.00;99.90
5304;DHT22;2674;49.722;10.892;2022-12-18T09:26:53;-5.90;99.90
5304;DHT22;2674;49.722;10.892;2022-12-18T09:29:20;-5.90;99.90
5304;DHT22;2674;49.722;10.892;2022-12-18T09:31:46;-5.90;99.90
5304;DHT22;2674;49.722;10.892;2022-12-18T09:34:12;-5.90;99.90
5304;DHT22;2674;49.722;10.892;2022-12-18T09:36:38;-5.80;99.90
5304;DHT22;2674;49.722;10.892;2022-12-18T09:39:04;-5.70;99.90
5304;DHT22;2674;49.722;10.892;2022-12-18T09:41:46;-5.60;99.90
5304;DHT22;2674;49.722;10.892;2022-12-18T09:46:44;-5.50;99.90
5304;DHT22;2674;49.722;10.892;2022-12-18T09:49:14;-5.50;99.90
5304;DHT22;2674;49.722;10.892;2022-12-18T09:51:50;-5.40;99.90
5304;DHT22;2674;49.722;10.892;2022-12-18T09:54:21;-5.30;99.90
5304;DHT22;2674;49.722;10.892;2022-12-18T09:56:49;-5.30;99.90
5304;DHT22;2674;49.722;10.892;2022-12-18T09:59:29;-5.20;99.90
5304;DHT22;2674;49.722;10.892;2022-12-18T10:01:56;-5.10;99.90
5304;DHT22;2674;49.722;10.892;2022-12-18T10:04:22;-5.00;99.90
5304;DHT22;2674;49.722;10.892;2022-12-18T10:09:38;-4.90;99.90
5304;DHT22;2674;49.722;10.892;2022-12-18T10:15:44;-4.70;99.90
5304;DHT22;2674;49.722;10.892;2022-12-18T10:18:22;-4.50;99.90
5304;DHT22;2674;49.722;10.892;2022-12-18T10:21:03;-4.50;99.90
5304;DHT22;2674;49.722;10.892;2022-12-18T10:26:06;-4.40;99.90
5304;DHT22;2674;49.722;10.892;2022-12-18T10:28:36;-4.40;99.90
5304;DHT22;2674;49.722;10.892;2022-12-18T10:31:02;-4.30;99.90
5304;DHT22;2674;49.722;10.892;2022-12-18T10:33:31;-4.30;99.90
5304;DHT22;2674;49.722;10.892;2022-12-18T10:35:58;-4.30;99.90
5304;DHT22;2674;49.722;10.892;2022-12-18T10:38:24;-4.30;99.90
5304;DHT22;2674;49.722;10.892;2022-12-18T10:41:05;-4.30;99.90
5304;DHT22;2674;49.722;10.892;2022-12-18T10:43:35;-4.30;99.90
5304;DHT22;2674;49.722;10.892;2022-12-18T10:48:32;-4.20;99.90
5304;DHT22;2674;49.722;10.892;2022-12-18T10:50:59;-4.20;99.90
5304;DHT22;2674;49.722;10.892;2022-12-18T10:53:30;-4.10;99.90
5304;DHT22;2674;49.722;10.892;2022-12-18T10:55:59;-4.10;99.90
5304;DHT22;2674;49.722;10.892;2022-12-18T10:58:38;-4.00;99.90
5304;DHT22;2674;49.722;10.892;2022-12-18T11:01:24;-3.90;99.90
5304;DHT22;2674;49.722;10.892;2022-12-18T11:06:18;-3.80;99.90
5304;DHT22;2674;49.722;10.892;2022-12-18T11:09:05;-3.80;99.90
5304;DHT22;2674;49.722;10.892;2022-12-18T11:11:32;-3.80;99.90
5304;DHT22;2674;49.722;10.892;2022-12-18T11:16:28;-3.70;99.90
5304;DHT22;2674;49.722;10.892;2022-12-18T11:19:12;-3.60;99.90
5304;DHT22;2674;49.722;10.892;2022-12-18T11:21:42;-3.60;99.90
5304;DHT22;2674;49.722;10.892;2022-12-18T11:24:39;-3.50;99.90
5304;DHT22;2674;49.722;10.892;2022-12-18T11:27:06;-3.50;99.90
5304;DHT22;2674;49.722;10.892;2022-12-18T11:29:41;-3.30;99.90
5304;DHT22;2674;49.722;10.892;2022-12-18T11:32:34;-3.30;99.90
5304;DHT22;2674;49.722;10.892;2022-12-18T11:35:20;-3.20;99.90
5304;DHT22;2674;49.722;10.892;2022-12-18T11:37:59;-3.20;99.90
5304;DHT22;2674;49.722;10.892;2022-12-18T11:40:36;-3.10;99.90
5304;DHT22;2674;49.722;10.892;2022-12-18T11:45:41;-2.90;99.90
5304;DHT22;2674;49.722;10.892;2022-12-18T11:48:23;-2.90;99.90
5304;DHT22;2674;49.722;10.892;2022-12-18T11:50:52;-2.80;99.90
5304;DHT22;2674;49.722;10.892;2022-12-18T11:53:19;-2.70;99.90
5304;DHT22;2674;49.722;10.892;2022-12-18T11:58:54;-2.60;99.90
5304;DHT22;2674;49.722;10.892;2022-12-18T12:01:40;-2.70;99.90
5304;DHT22;2674;49.722;10.892;2022-12-18T12:07:09;-2.70;99.90
5304;DHT22;2674;49.722;10.892;2022-12-18T12:18:36;-2.50;99.90
5304;DHT22;2674;49.722;10.892;2022-12-18T12:20:45;-2.60;99.90
5304;DHT22;2674;49.722;10.892;2022-12-18T12:26:08;-2.50;99.90
5304;DHT22;2674;49.722;10.892;2022-12-18T12:34:21;-2.30;99.90
5304;DHT22;2674;49.722;10.892;2022-12-18T12:39:43;-2.20;99.90
5304;DHT22;2674;49.722;10.892;2022-12-18T12:42:34;-2.10;99.90
5304;DHT22;2674;49.722;10.892;2022-12-18T12:53:54;-2.00;99.90
5304;DHT22;2674;49.722;10.892;2022-12-18T12:56:22;-2.00;99.90
5304;DHT22;2674;49.722;10.892;2022-12-18T13:02:02;-2.00;99.90
5304;DHT22;2674;49.722;10.892;2022-12-18T13:04:49;-2.00;99.90
5304;DHT22;2674;49.722;10.892;2022-12-18T13:07:29;-2.00;99.90
5304;DHT22;2674;49.722;10.892;2022-12-18T13:13:02;-2.00;99.90
5304;DHT22;2674;49.722;10.892;2022-12-18T13:15:44;-1.90;99.90
5304;DHT22;2674;49.722;10.892;2022-12-18T13:18:12;-1.90;99.90
5304;DHT22;2674;49.722;10.892;2022-12-18T13:20:50;-1.90;99.90
5304;DHT22;2674;49.722;10.892;2022-12-18T13:30:59;-1.90;99.90
5304;DHT22;2674;49.722;10.892;2022-12-18T13:40:58;-2.00;99.90
5304;DHT22;2674;49.722;10.892;2022-12-18T13:43:29;-2.00;99.90
5304;DHT22;2674;49.722;10.892;2022-12-18T13:48:33;-2.10;99.90
5304;DHT22;2674;49.722;10.892;2022-12-18T13:51:06;-2.10;99.90
5304;DHT22;2674;49.722;10.892;2022-12-18T13:53:54;-2.10;99.90
5304;DHT22;2674;49.722;10.892;2022-12-18T13:56:30;-2.20;99.90
5304;DHT22;2674;49.722;10.892;2022-12-18T14:02:00;-2.30;99.90
5304;DHT22;2674;49.722;10.892;2022-12-18T14:04:28;-2.30;99.90
5304;DHT22;2674;49.722;10.892;2022-12-18T14:07:03;-2.30;99.90
5304;DHT22;2674;49.722;10.892;2022-12-18T14:09:33;-2.40;99.90
5304;DHT22;2674;49.722;10.892;2022-12-18T14:12:00;-2.50;99.90
5304;DHT22;2674;49.722;10.892;2022-12-18T14:14:47;-2.50;99.90
5304;DHT22;2674;49.722;10.892;2022-12-18T14:17:15;-2.30;99.90
5304;DHT22;2674;49.722;10.892;2022-12-18T14:19:46;-2.50;99.90
5304;DHT22;2674;49.722;10.892;2022-12-18T14:22:21;-2.50;99.90
5304;DHT22;2674;49.722;10.892;2022-12-18T14:27:48;-2.50;99.90
5304;DHT22;2674;49.722;10.892;2022-12-18T14:41:15;-2.50;99.90
5304;DHT22;2674;49.722;10.892;2022-12-18T14:43:42;-2.60;99.90
5304;DHT22;2674;49.722;10.892;2022-12-18T14:49:23;-2.80;99.90
5304;DHT22;2674;49.722;10.892;2022-12-18T14:51:57;-2.70;99.90
5304;DHT22;2674;49.722;10.892;2022-12-18T14:54:25;-2.70;99.90
5304;DHT22;2674;49.722;10.892;2022-12-18T14:59:24;-2.90;99.90
5304;DHT22;2674;49.722;10.892;2022-12-18T15:04:41;-2.90;99.90
5304;DHT22;2674;49.722;10.892;2022-12-18T15:07:16;-3.00;99.90
5304;DHT22;2674;49.722;10.892;2022-12-18T15:09:44;-3.00;99.90
5304;DHT22;2674;49.722;10.892;2022-12-18T15:12:36;-3.20;99.90
5304;DHT22;2674;49.722;10.892;2022-12-18T15:15:03;-3.10;99.90
5304;DHT22;2674;49.722;10.892;2022-12-18T15:17:29;-3.20;99.90
5304;DHT22;2674;49.722;10.892;2022-12-18T15:20:02;-3.20;99.90
5304;DHT22;2674;49.722;10.892;2022-12-18T15:22:30;-3.30;99.90
5304;DHT22;2674;49.722;10.892;2022-12-18T15:24:58;-3.30;99.90
5304;DHT22;2674;49.722;10.892;2022-12-18T15:27:35;-3.40;99.90
5304;DHT22;2674;49.722;10.892;2022-12-18T15:30:15;-3.40;99.90
5304;DHT22;2674;49.722;10.892;2022-12-18T15:32:42;-3.40;99.90
5304;DHT22;2674;49.722;10.892;2022-12-18T15:37:34;-3.40;99.90
5304;DHT22;2674;49.722;10.892;2022-12-18T15:39:59;-3.40;99.90
5304;DHT22;2674;49.722;10.892;2022-12-18T15:42:25;-3.30;99.90
5304;DHT22;2674;49.722;10.892;2022-12-18T15:45:13;-3.40;99.90
5304;DHT22;2674;49.722;10.892;2022-12-18T15:47:40;-3.50;99.90
5304;DHT22;2674;49.722;10.892;2022-12-18T15:50:07;-3.60;99.90
5304;DHT22;2674;49.722;10.892;2022-12-18T15:52:40;-3.60;99.90
5304;DHT22;2674;49.722;10.892;2022-12-18T15:55:33;-3.60;99.90
5304;DHT22;2674;49.722;10.892;2022-12-18T15:58:17;-3.60;99.90
5304;DHT22;2674;49.722;10.892;2022-12-18T16:00:44;-3.60;99.90
5304;DHT22;2674;49.722;10.892;2022-12-18T16:03:10;-3.70;99.90
5304;DHT22;2674;49.722;10.892;2022-12-18T16:05:35;-3.60;99.90
5304;DHT22;2674;49.722;10.892;2022-12-18T16:08:01;-3.70;99.90
5304;DHT22;2674;49.722;10.892;2022-12-18T16:10:27;-3.70;99.90
5304;DHT22;2674;49.722;10.892;2022-12-18T16:12:53;-3.70;99.90
5304;DHT22;2674;49.722;10.892;2022-12-18T16:15:19;-3.70;99.90
5304;DHT22;2674;49.722;10.892;2022-12-18T16:17:46;-3.70;99.90
5304;DHT22;2674;49.722;10.892;2022-12-18T16:20:20;-3.70;99.90
5304;DHT22;2674;49.722;10.892;2022-12-18T16:22:47;-3.70;99.90
5304;DHT22;2674;49.722;10.892;2022-12-18T16:25:20;-3.70;99.90
5304;DHT22;2674;49.722;10.892;2022-12-18T16:27:46;-3.80;99.90
5304;DHT22;2674;49.722;10.892;2022-12-18T16:30:17;-3.80;99.90
5304;DHT22;2674;49.722;10.892;2022-12-18T16:32:46;-3.80;99.90
5304;DHT22;2674;49.722;10.892;2022-12-18T16:35:13;-3.80;99.90
5304;DHT22;2674;49.722;10.892;2022-12-18T16:37:40;-3.80;99.90
5304;DHT22;2674;49.722;10.892;2022-12-18T16:40:08;-3.90;99.90
5304;DHT22;2674;49.722;10.892;2022-12-18T16:42:36;-3.90;99.90
5304;DHT22;2674;49.722;10.892;2022-12-18T16:45:02;-3.90;99.90
5304;DHT22;2674;49.722;10.892;2022-12-18T16:47:28;-3.90;99.90
5304;DHT22;2674;49.722;10.892;2022-12-18T16:49:54;-3.90;99.90
5304;DHT22;2674;49.722;10.892;2022-12-18T16:52:21;-3.90;99.90
5304;DHT22;2674;49.722;10.892;2022-12-18T16:54:47;-3.90;99.90
5304;DHT22;2674;49.722;10.892;2022-12-18T16:57:16;-3.90;99.90
5304;DHT22;2674;49.722;10.892;2022-12-18T16:59:42;-3.90;99.90
5304;DHT22;2674;49.722;10.892;2022-12-18T17:02:14;-3.90;99.90
5304;DHT22;2674;49.722;10.892;2022-12-18T17:04:40;-3.90;99.90
5304;DHT22;2674;49.722;10.892;2022-12-18T17:07:07;-4.00;99.90
5304;DHT22;2674;49.722;10.892;2022-12-18T17:09:33;-4.00;99.90
5304;DHT22;2674;49.722;10.892;2022-12-18T17:11:59;-4.00;99.90
5304;DHT22;2674;49.722;10.892;2022-12-18T17:14:25;-4.00;99.90
5304;DHT22;2674;49.722;10.892;2022-12-18T17:16:52;-4.00;99.90
5304;DHT22;2674;49.722;10.892;2022-12-18T17:19:19;-4.10;99.90
5304;DHT22;2674;49.722;10.892;2022-12-18T17:21:47;-3.80;99.90
5304;DHT22;2674;49.722;10.892;2022-12-18T17:24:14;-4.00;99.90
5304;DHT22;2674;49.722;10.892;2022-12-18T17:26:40;-4.00;99.90
5304;DHT22;2674;49.722;10.892;2022-12-18T17:29:07;-4.00;99.90
5304;DHT22;2674;49.722;10.892;2022-12-18T17:31:33;-4.00;99.90
5304;DHT22;2674;49.722;10.892;2022-12-18T17:34:01;-4.00;99.90
5304;DHT22;2674;49.722;10.892;2022-12-18T17:36:27;-4.10;99.90
5304;DHT22;2674;49.722;10.892;2022-12-18T17:38:55;-4.10;99.90
5304;DHT22;2674;49.722;10.892;2022-12-18T17:41:22;-4.20;99.90
5304;DHT22;2674;49.722;10.892;2022-12-18T17:43:53;-4.20;99.90
5304;DHT22;2674;49.722;10.892;2022-12-18T17:46:19;-4.30;99.90
5304;DHT22;2674;49.722;10.892;2022-12-18T17:48:45;-4.20;99.90
5304;DHT22;2674;49.722;10.892;2022-12-18T17:51:12;-4.20;99.90
5304;DHT22;2674;49.722;10.892;2022-12-18T17:53:38;-4.20;99.90
5304;DHT22;2674;49.722;10.892;2022-12-18T17:56:05;-4.20;99.90